createdAt,value
2018-08-10T00:00:16.737Z,74.89
2018-08-10T00:02:46.047Z,74.54
2018-08-10T00:05:16.265Z,75.98
2018-08-10T00:07:45.249Z,75.90
2018-08-10T00:10:15.079Z,75.66
2018-08-10T00:12:44.453Z,76.49
2018-08-10T00:15:14.018Z,77.19
2018-08-10T00:17:43.170Z,79.87
2018-08-10T00:20:14.870Z,80.25
2018-08-10T00:22:44.886Z,79.58
2018-08-10T00:25:16.722Z,79.38
2018-08-10T00:27:45.986Z,80.07
2018-08-10T00:30:17.987Z,80.06
2018-08-10T00:32:48.290Z,80.44
2018-08-10T00:35:17.667Z,79.52
2018-08-10T00:37:47.932Z,78.89
2018-08-10T00:40:25.079Z,77.94
2018-08-10T00:42:54.266Z,79.61
2018-08-10T00:45:23.339Z,80.06
2018-08-10T00:47:53.086Z,79.73
2018-08-10T00:50:22.182Z,79.65
2018-08-10T00:52:51.250Z,79.17
2018-08-10T00:55:20.389Z,79.10
2018-08-10T00:57:50.013Z,78.74
2018-08-10T01:00:21.357Z,78.95
2018-08-10T01:02:51.576Z,78.48
2018-08-10T01:05:20.877Z,77.05
2018-08-10T01:07:50.156Z,77.57
2018-08-10T01:10:20.543Z,76.55
2018-08-10T01:12:49.793Z,75.43
2018-08-10T01:15:53.311Z,74.76
2018-08-10T01:18:22.596Z,74.72
2018-08-10T01:20:52.092Z,72.99
2018-08-10T01:23:21.781Z,73.67
2018-08-10T01:25:51.354Z,73.87
2018-08-10T01:28:22.099Z,72.80
2018-08-10T01:30:51.494Z,73.66
2018-08-10T01:33:21.036Z,74.26
2018-08-10T01:35:50.206Z,73.29
2018-08-10T01:38:20.072Z,72.63
2018-08-10T01:40:49.124Z,72.32
2018-08-10T01:43:18.271Z,72.57
2018-08-10T01:45:47.624Z,72.92
2018-08-10T01:48:16.610Z,72.53
2018-08-10T01:50:46.205Z,73.14
2018-08-10T01:53:15.623Z,73.24
2018-08-10T01:55:44.558Z,72.92
2018-08-10T01:58:13.808Z,72.31
2018-08-10T02:00:42.921Z,73.51
2018-08-10T02:03:12.968Z,72.50
2018-08-10T02:05:41.944Z,73.21
2018-08-10T02:08:11.288Z,72.79
2018-08-10T02:10:40.517Z,72.12
2018-08-10T02:13:09.509Z,72.55
2018-08-10T02:15:38.734Z,74.36
2018-08-10T02:18:08.002Z,73.70
2018-08-10T02:20:37.555Z,72.48
2018-08-10T02:23:06.603Z,72.92
2018-08-10T02:25:35.738Z,72.21
2018-08-10T02:28:04.873Z,72.41
2018-08-10T02:30:34.110Z,72.78
2018-08-10T02:33:03.195Z,73.46
2018-08-10T02:35:32.318Z,73.27
2018-08-10T02:38:01.402Z,72.27
2018-08-10T02:40:31.135Z,73.03
2018-08-10T02:43:00.643Z,73.91
2018-08-10T02:45:29.926Z,74.20
2018-08-10T02:47:58.988Z,75.07
2018-08-10T02:50:28.529Z,75.97
2018-08-10T02:52:57.797Z,76.73
2018-08-10T02:55:27.127Z,76.32
2018-08-10T02:57:56.199Z,76.90
2018-08-10T03:00:25.520Z,77.16
2018-08-10T03:02:54.638Z,77.62
2018-08-10T03:05:23.974Z,77.86
2018-08-10T03:07:53.227Z,78.50
2018-08-10T03:10:22.734Z,79.24
2018-08-10T03:12:52.208Z,78.86
2018-08-10T03:15:21.400Z,79.86
2018-08-10T03:17:50.624Z,80.61
2018-08-10T03:20:20.616Z,80.18
2018-08-10T03:22:50.287Z,81.56
2018-08-10T03:25:19.620Z,80.87
2018-08-10T03:27:49.284Z,81.97
2018-08-10T03:30:18.329Z,82.44
2018-08-10T03:32:47.440Z,82.70
2018-08-10T03:35:16.523Z,83.43
2018-08-10T03:37:45.671Z,83.33
2018-08-10T03:40:16.206Z,83.48
2018-08-10T03:42:45.512Z,82.37
2018-08-10T03:45:14.770Z,82.60
2018-08-10T03:47:43.874Z,82.80
2018-08-10T03:50:14.405Z,82.78
2018-08-10T03:52:44.329Z,83.07
2018-08-10T03:55:13.694Z,83.72
2018-08-10T03:57:42.898Z,83.30
2018-08-10T04:00:14.155Z,82.88
2018-08-10T04:02:44.061Z,82.65
2018-08-10T04:05:14.065Z,83.72
2018-08-10T04:07:43.227Z,84.46
2018-08-10T04:10:12.493Z,84.00
2018-08-10T04:12:41.590Z,85.00
2018-08-10T04:15:13.763Z,85.19
2018-08-10T04:17:43.983Z,85.33
2018-08-10T04:20:13.422Z,86.07
2018-08-10T04:22:43.170Z,85.43
2018-08-10T04:25:12.576Z,85.91
2018-08-10T04:27:41.872Z,86.18
2018-08-10T04:30:12.202Z,86.04
2018-08-10T04:32:41.938Z,85.92
2018-08-10T04:35:11.255Z,85.89
2018-08-10T04:37:40.478Z,86.07
2018-08-10T04:40:14.046Z,86.16
2018-08-10T04:42:43.363Z,86.06
2018-08-10T04:45:13.022Z,85.99
2018-08-10T04:47:49.218Z,86.34
2018-08-10T04:50:19.339Z,85.93
2018-08-10T04:52:48.539Z,85.69
2018-08-10T04:55:17.509Z,85.03
2018-08-10T04:57:46.566Z,85.24
2018-08-10T05:00:15.698Z,85.20
2018-08-10T05:02:45.187Z,85.52
2018-08-10T05:05:14.473Z,84.30
2018-08-10T05:07:43.722Z,84.18
2018-08-10T05:10:13.503Z,84.68
2018-08-10T05:12:42.586Z,84.31
2018-08-10T05:15:12.431Z,84.30
2018-08-10T05:17:43.071Z,83.75
2018-08-10T05:20:12.854Z,83.74
2018-08-10T05:22:42.520Z,83.54
2018-08-10T05:25:11.794Z,82.99
2018-08-10T05:27:41.311Z,82.91
2018-08-10T05:30:11.354Z,82.89
2018-08-10T05:32:41.581Z,83.47
2018-08-10T05:35:11.656Z,82.93
2018-08-10T05:37:40.928Z,83.05
2018-08-10T05:40:10.857Z,82.56
2018-08-10T05:42:40.078Z,82.97
2018-08-10T05:45:09.567Z,83.08
2018-08-10T05:47:38.974Z,83.15
2018-08-10T05:50:08.463Z,82.97
2018-08-10T05:52:37.813Z,82.43
2018-08-10T05:55:07.392Z,82.82
2018-08-10T05:57:37.003Z,82.56
2018-08-10T06:00:07.390Z,81.55
2018-08-10T06:02:37.076Z,82.11
2018-08-10T06:05:07.057Z,81.12
2018-08-10T06:07:36.688Z,81.08
2018-08-10T06:10:07.741Z,81.09
2018-08-10T06:12:37.265Z,81.32
2018-08-10T06:15:08.299Z,79.95
2018-08-10T06:17:37.510Z,78.96
2018-08-10T06:20:08.190Z,77.94
2018-08-10T06:22:37.534Z,77.60
2018-08-10T06:25:07.414Z,76.22
2018-08-10T06:27:37.468Z,75.52
2018-08-10T06:30:09.434Z,75.30
2018-08-10T06:32:39.475Z,73.37
2018-08-10T06:35:08.638Z,73.68
2018-08-10T06:37:38.487Z,73.98
2018-08-10T06:40:07.942Z,74.15
2018-08-10T06:42:37.522Z,73.04
2018-08-10T06:45:07.035Z,72.57
2018-08-10T06:47:36.270Z,71.46
2018-08-10T06:50:06.043Z,71.37
2018-08-10T06:52:34.902Z,71.53
2018-08-10T06:55:04.687Z,71.30
2018-08-10T06:57:34.328Z,70.91
2018-08-10T07:00:03.414Z,70.27
2018-08-10T07:02:32.446Z,69.52
2018-08-10T07:05:01.427Z,68.10
2018-08-10T07:07:31.317Z,68.11
2018-08-10T07:10:00.374Z,68.38
2018-08-10T07:12:29.738Z,67.11
2018-08-10T07:14:58.791Z,66.28
2018-08-10T07:17:28.493Z,64.60
2018-08-10T07:19:57.391Z,65.35
2018-08-10T07:22:26.658Z,64.78
2018-08-10T07:24:56.149Z,64.77
2018-08-10T07:27:25.310Z,62.33
2018-08-10T07:29:54.945Z,63.05
2018-08-10T07:32:24.127Z,62.75
2018-08-10T07:34:53.367Z,61.69
2018-08-10T07:37:22.469Z,59.26
2018-08-10T07:39:51.598Z,59.11
2018-08-10T07:42:20.671Z,57.64
2018-08-10T07:44:49.727Z,54.21
2018-08-10T07:47:18.848Z,54.50
2018-08-10T07:49:47.923Z,53.77
2018-08-10T07:52:16.899Z,51.87
2018-08-10T07:54:46.117Z,50.26
2018-08-10T07:57:15.810Z,51.84
2018-08-10T07:59:45.356Z,51.93
2018-08-10T08:02:14.471Z,49.02
2018-08-10T08:04:43.899Z,50.33
2018-08-10T08:07:13.310Z,47.41
2018-08-10T08:09:43.021Z,47.18
2018-08-10T08:12:12.522Z,47.96
2018-08-10T08:14:41.769Z,49.31
2018-08-10T08:17:11.050Z,52.29
2018-08-10T08:19:40.206Z,50.26
2018-08-10T08:22:15.153Z,48.99
2018-08-10T08:24:45.751Z,46.63
2018-08-10T08:27:16.784Z,46.08
2018-08-10T08:29:46.837Z,47.74
2018-08-10T08:32:18.607Z,48.48
2018-08-10T08:34:47.678Z,48.86
2018-08-10T08:37:17.166Z,47.32
2018-08-10T08:39:57.263Z,46.99
2018-08-10T08:42:26.408Z,46.66
2018-08-10T08:46:05.565Z,48.19
2018-08-10T08:48:42.184Z,49.26
2018-08-10T08:51:14.519Z,49.36
2018-08-10T08:53:43.647Z,46.78
2018-08-10T08:56:14.858Z,46.31
2018-08-10T08:58:45.408Z,46.17
2018-08-10T09:01:15.181Z,46.12
2018-08-10T09:04:20.774Z,46.38
2018-08-10T09:06:50.539Z,44.69
2018-08-10T09:09:30.674Z,44.55
2018-08-10T09:12:00.037Z,45.73
2018-08-10T09:14:40.239Z,44.75
2018-08-10T09:17:10.274Z,44.85
2018-08-10T09:19:40.494Z,45.42
2018-08-10T09:22:09.920Z,43.74
2018-08-10T09:24:39.551Z,41.16
2018-08-10T09:27:08.691Z,40.83
2018-08-10T09:29:38.182Z,41.11
2018-08-10T09:32:07.906Z,39.64
2018-08-10T09:34:36.868Z,38.56
2018-08-10T09:37:06.934Z,38.02
2018-08-10T09:39:36.034Z,36.07
2018-08-10T09:42:05.692Z,36.27
2018-08-10T09:44:35.400Z,36.97
2018-08-10T09:47:05.583Z,37.86
2018-08-10T09:49:40.168Z,37.16
2018-08-10T09:52:09.688Z,39.74
2018-08-10T09:55:24.658Z,40.27
2018-08-10T09:57:59.902Z,38.26
2018-08-10T10:00:34.546Z,36.98
2018-08-10T10:03:09.098Z,36.54
2018-08-10T10:05:38.947Z,37.75
2018-08-10T10:08:08.160Z,37.19
2018-08-10T10:10:37.454Z,37.58
2018-08-10T10:13:06.530Z,35.78
2018-08-10T10:15:35.844Z,33.00
2018-08-10T10:18:06.837Z,30.99
2018-08-10T10:20:35.867Z,32.61
2018-08-10T10:23:05.581Z,33.03
2018-08-10T10:25:35.006Z,34.75
2018-08-10T10:28:04.679Z,34.67
2018-08-10T10:30:33.934Z,34.33
2018-08-10T10:33:03.222Z,33.40
2018-08-10T10:35:32.502Z,31.33
2018-08-10T10:38:02.014Z,31.45
2018-08-10T10:40:31.067Z,34.64
2018-08-10T10:43:00.862Z,34.78
2018-08-10T10:45:29.855Z,33.35
2018-08-10T10:47:58.996Z,32.89
2018-08-10T10:50:27.937Z,33.19
2018-08-10T10:52:57.390Z,32.88
2018-08-10T10:55:26.923Z,34.24
2018-08-10T10:57:56.360Z,33.34
2018-08-10T11:00:25.477Z,32.94
2018-08-10T11:02:54.917Z,29.09
2018-08-10T11:05:23.873Z,29.31
2018-08-10T11:07:52.971Z,28.25
2018-08-10T11:10:22.045Z,29.42
2018-08-10T11:12:51.179Z,31.58
2018-08-10T11:15:20.526Z,33.92
2018-08-10T11:17:49.819Z,31.46
2018-08-10T11:20:19.071Z,32.75
2018-08-10T11:22:48.167Z,34.15
2018-08-10T11:25:17.274Z,33.27
2018-08-10T11:27:46.411Z,34.54
2018-08-10T11:30:15.683Z,33.69
2018-08-10T11:32:44.791Z,34.81
2018-08-10T11:35:13.873Z,35.45
2018-08-10T11:37:43.495Z,35.48
2018-08-10T11:40:14.319Z,35.71
2018-08-10T11:42:44.093Z,36.86
2018-08-10T11:45:15.241Z,35.53
2018-08-10T11:47:44.451Z,35.98
2018-08-10T11:50:13.969Z,34.45
2018-08-10T11:52:43.241Z,36.01
2018-08-10T11:55:13.636Z,35.76
2018-08-10T11:57:43.614Z,34.26
2018-08-10T12:00:14.643Z,35.30
2018-08-10T12:02:44.517Z,34.56
2018-08-10T12:05:14.918Z,34.96
2018-08-10T12:07:44.132Z,34.65
2018-08-10T12:10:13.256Z,34.18
2018-08-10T12:12:42.198Z,34.55
2018-08-10T12:15:13.358Z,35.57
2018-08-10T12:17:42.982Z,34.92
2018-08-10T12:20:11.986Z,34.26
2018-08-10T12:22:42.342Z,33.96
2018-08-10T12:25:11.886Z,34.09
2018-08-10T12:27:40.992Z,33.59
2018-08-10T12:30:12.537Z,33.36
2018-08-10T12:32:42.285Z,32.76
2018-08-10T12:35:11.953Z,32.30
2018-08-10T12:37:41.522Z,33.74
2018-08-10T12:40:11.129Z,33.70
2018-08-10T12:42:40.766Z,33.58
2018-08-10T12:45:09.828Z,34.73
2018-08-10T12:47:39.336Z,33.74
2018-08-10T12:50:09.371Z,33.22
2018-08-10T12:52:38.732Z,32.36
2018-08-10T12:55:08.702Z,31.18
2018-08-10T12:57:38.228Z,32.05
2018-08-10T13:00:10.560Z,32.00
2018-08-10T13:02:40.227Z,30.95
2018-08-10T13:05:09.978Z,31.14
2018-08-10T13:07:39.281Z,30.73
2018-08-10T13:10:12.092Z,31.59
2018-08-10T13:12:41.362Z,33.48
2018-08-10T13:15:12.439Z,34.11
2018-08-10T13:17:41.559Z,33.08
2018-08-10T13:20:12.930Z,32.81
2018-08-10T13:22:42.189Z,33.13
2018-08-10T13:25:12.107Z,33.30
2018-08-10T13:27:41.765Z,31.04
2018-08-10T13:30:12.577Z,31.06
2018-08-10T13:32:41.657Z,30.78
2018-08-10T13:35:10.805Z,30.71
2018-08-10T13:37:39.834Z,29.43
2018-08-10T13:40:09.423Z,31.21
2018-08-10T13:42:38.717Z,30.48
2018-08-10T13:45:10.657Z,29.24
2018-08-10T13:47:39.702Z,28.76
2018-08-10T13:50:11.131Z,30.91
2018-08-10T13:52:40.371Z,29.72
2018-08-10T13:55:11.804Z,30.07
2018-08-10T13:57:40.758Z,29.62
2018-08-10T14:00:14.062Z,30.49
2018-08-10T14:02:43.699Z,30.56
2018-08-10T14:05:13.120Z,30.04
2018-08-10T14:07:42.623Z,29.86
2018-08-10T14:10:13.223Z,30.46
2018-08-10T14:12:42.348Z,31.28
2018-08-10T14:15:12.394Z,31.06
2018-08-10T14:17:42.619Z,31.72
2018-08-10T14:20:13.104Z,30.23
2018-08-10T14:22:42.622Z,29.72
2018-08-10T14:25:12.353Z,29.81
2018-08-10T14:27:41.343Z,30.42
2018-08-10T14:30:13.685Z,31.01
2018-08-10T14:32:43.083Z,31.22
2018-08-10T14:35:13.683Z,31.82
2018-08-10T14:37:43.158Z,30.82
2018-08-10T14:40:13.526Z,29.45
2018-08-10T14:42:43.591Z,29.78
2018-08-10T14:45:14.265Z,29.75
2018-08-10T14:47:43.398Z,29.46
2018-08-10T14:50:14.015Z,29.16
2018-08-10T14:52:43.294Z,29.08
2018-08-10T14:55:14.662Z,29.02
2018-08-10T14:57:43.911Z,29.94
2018-08-10T15:00:19.293Z,31.05
2018-08-10T15:02:48.965Z,30.02
2018-08-10T15:05:18.482Z,30.34
2018-08-10T15:07:48.003Z,30.05
2018-08-10T15:10:17.906Z,29.99
2018-08-10T15:12:47.976Z,29.67
2018-08-10T15:15:18.536Z,30.24
2018-08-10T15:17:48.131Z,29.79
2018-08-10T15:20:19.421Z,30.65
2018-08-10T15:22:48.554Z,30.16
2018-08-10T15:25:17.641Z,30.41
2018-08-10T15:27:46.742Z,30.26
2018-08-10T15:30:18.309Z,29.83
2018-08-10T15:32:47.383Z,29.35
2018-08-10T15:35:17.531Z,30.33
2018-08-10T15:37:47.201Z,30.86
2018-08-10T15:40:18.651Z,31.41
2018-08-10T15:42:47.919Z,32.16
2018-08-10T15:45:17.976Z,31.98
2018-08-10T15:47:47.521Z,32.54
2018-08-10T15:50:17.018Z,30.71
2018-08-10T15:52:46.611Z,32.56
2018-08-10T15:55:16.160Z,32.20
2018-08-10T15:57:45.318Z,32.07
2018-08-10T16:00:18.309Z,32.91
2018-08-10T16:02:48.060Z,31.54
2018-08-10T16:05:17.763Z,31.86
2018-08-10T16:07:47.019Z,32.03
2018-08-10T16:10:16.342Z,32.45
2018-08-10T16:12:45.599Z,30.67
2018-08-10T16:15:16.066Z,30.13
2018-08-10T16:17:45.249Z,29.78
2018-08-10T16:20:16.814Z,29.30
2018-08-10T16:22:45.922Z,28.94
2018-08-10T16:25:15.176Z,28.55
2018-08-10T16:27:44.726Z,28.92
2018-08-10T16:30:15.671Z,28.61
2018-08-10T16:32:45.783Z,28.86
2018-08-10T16:35:15.993Z,28.46
2018-08-10T16:37:46.630Z,29.42
2018-08-10T16:40:17.394Z,29.17
2018-08-10T16:42:46.669Z,30.76
2018-08-10T16:45:16.135Z,30.00
2018-08-10T16:47:45.238Z,29.81
2018-08-10T16:50:17.008Z,29.58
2018-08-10T16:52:46.695Z,30.45
2018-08-10T16:55:18.487Z,31.18
2018-08-10T16:57:48.503Z,31.19
2018-08-10T17:00:19.730Z,30.59
2018-08-10T17:02:49.144Z,30.57
2018-08-10T17:05:18.369Z,30.77
2018-08-10T17:07:47.645Z,30.82
2018-08-10T17:10:16.722Z,30.59
2018-08-10T17:12:46.348Z,31.04
2018-08-10T17:15:18.590Z,30.56
2018-08-10T17:17:48.434Z,30.60
2018-08-10T17:20:18.546Z,31.72
2018-08-10T17:22:47.495Z,31.51
2018-08-10T17:25:19.594Z,32.22
2018-08-10T17:27:48.640Z,32.39
2018-08-10T17:30:19.360Z,32.57
2018-08-10T17:32:48.615Z,32.19
2018-08-10T17:35:18.166Z,32.24
2018-08-10T17:37:47.826Z,32.87
2018-08-10T17:40:16.975Z,32.11
2018-08-10T17:42:46.222Z,32.12
2018-08-10T17:45:17.017Z,32.54
2018-08-10T17:47:46.256Z,32.38
2018-08-10T17:50:18.829Z,32.29
2018-08-10T17:52:49.642Z,32.66
2018-08-10T17:55:19.631Z,32.49
2018-08-10T17:57:49.214Z,33.12
2018-08-10T18:00:21.319Z,33.16
2018-08-10T18:02:51.486Z,33.08
2018-08-10T18:05:20.605Z,33.42
2018-08-10T18:07:50.042Z,33.26
2018-08-10T18:10:20.116Z,33.46
2018-08-10T18:12:49.312Z,32.90
2018-08-10T18:15:20.318Z,34.25
2018-08-10T18:17:49.975Z,33.53
2018-08-10T18:20:20.614Z,33.24
2018-08-10T18:22:51.056Z,33.37
2018-08-10T18:25:21.686Z,32.57
2018-08-10T18:27:50.838Z,33.08
2018-08-10T18:30:24.343Z,34.15
2018-08-10T18:32:54.023Z,32.96
2018-08-10T18:35:23.290Z,33.73
2018-08-10T18:37:52.964Z,33.77
2018-08-10T18:40:22.441Z,34.98
2018-08-10T18:42:51.896Z,34.62
2018-08-10T18:45:21.876Z,34.14
2018-08-10T18:47:50.974Z,34.03
2018-08-10T18:50:21.100Z,34.52
2018-08-10T18:52:50.668Z,35.37
2018-08-10T18:55:22.194Z,34.83
2018-08-10T18:57:52.103Z,35.00
2018-08-10T19:00:25.526Z,35.71
2018-08-10T19:02:55.195Z,35.47
2018-08-10T19:05:24.640Z,35.94
2018-08-10T19:07:53.748Z,35.74
2018-08-10T19:10:28.900Z,36.38
2018-08-10T19:12:58.151Z,37.06
2018-08-10T19:15:27.622Z,36.61
2018-08-10T19:17:56.946Z,37.07
2018-08-10T19:20:26.202Z,38.08
2018-08-10T19:22:55.669Z,37.51
2018-08-10T19:25:24.982Z,38.55
2018-08-10T19:27:54.071Z,38.70
2018-08-10T19:30:24.915Z,39.22
2018-08-10T19:32:54.271Z,39.07
2018-08-10T19:35:23.463Z,40.26
2018-08-10T19:37:52.556Z,40.07
2018-08-10T19:40:21.731Z,40.51
2018-08-10T19:42:50.966Z,40.56
2018-08-10T19:45:20.200Z,40.42
2018-08-10T19:47:49.365Z,40.70
2018-08-10T19:50:22.478Z,40.49
2018-08-10T19:52:52.469Z,42.00
2018-08-10T19:55:21.475Z,40.84
2018-08-10T19:57:50.632Z,42.13
2018-08-10T20:00:20.330Z,42.07
2018-08-10T20:02:51.025Z,43.06
2018-08-10T20:05:20.000Z,42.80
2018-08-10T20:07:49.308Z,43.92
2018-08-10T20:10:18.745Z,43.59
2018-08-10T20:12:47.871Z,43.71
2018-08-10T20:15:18.616Z,43.33
2018-08-10T20:17:47.694Z,42.29
2018-08-10T20:20:18.336Z,43.25
2018-08-10T20:22:48.060Z,42.39
2018-08-10T20:25:17.674Z,42.65
2018-08-10T20:27:46.962Z,43.28
2018-08-10T20:30:18.007Z,42.82
2018-08-10T20:32:47.942Z,42.82
2018-08-10T20:35:18.776Z,43.33
2018-08-10T20:37:48.285Z,43.42
2018-08-10T20:40:19.079Z,42.99
2018-08-10T20:42:49.059Z,43.25
2018-08-10T20:45:19.423Z,43.58
2018-08-10T20:47:48.722Z,44.14
2018-08-10T20:50:22.221Z,43.05
2018-08-10T20:52:52.235Z,44.32
2018-08-10T20:55:21.770Z,44.07
2018-08-10T20:57:51.470Z,44.44
2018-08-10T21:00:20.533Z,44.39
2018-08-10T21:02:50.082Z,45.49
2018-08-10T21:05:19.146Z,45.18
2018-08-10T21:07:48.867Z,45.71
2018-08-10T21:10:18.341Z,45.53
2018-08-10T21:12:48.412Z,45.39
2018-08-10T21:15:17.786Z,44.82
2018-08-10T21:17:47.754Z,45.05
2018-08-10T21:20:17.842Z,45.06
2018-08-10T21:22:47.797Z,44.82
2018-08-10T21:25:17.173Z,45.39
2018-08-10T21:27:46.322Z,45.77
2018-08-10T21:30:17.735Z,45.24
2018-08-10T21:32:47.578Z,45.91
2018-08-10T21:35:16.911Z,46.61
2018-08-10T21:37:46.897Z,46.30
2018-08-10T21:40:16.122Z,47.03
2018-08-10T21:42:45.390Z,47.01
2018-08-10T21:45:14.722Z,46.80
2018-08-10T21:47:43.796Z,47.82
2018-08-10T21:50:14.335Z,47.98
2018-08-10T21:52:44.601Z,47.90
2018-08-10T21:55:13.766Z,48.45
2018-08-10T21:57:43.078Z,48.31
2018-08-10T22:00:45.079Z,48.25
2018-08-10T22:03:14.651Z,48.66
2018-08-10T22:05:44.055Z,49.02
2018-08-10T22:08:13.203Z,49.23
2018-08-10T22:10:42.274Z,48.89
2018-08-10T22:13:16.522Z,50.00
2018-08-10T22:15:51.075Z,49.60
2018-08-10T22:18:25.494Z,49.65
2018-08-10T22:20:56.127Z,49.88
2018-08-10T22:23:26.103Z,50.57
2018-08-10T22:25:55.638Z,50.01
2018-08-10T22:28:24.873Z,49.84
2018-08-10T22:30:54.248Z,50.48
2018-08-10T22:33:23.382Z,50.38
2018-08-10T22:35:53.130Z,50.03
2018-08-10T22:38:22.454Z,50.49
2018-08-10T22:40:51.519Z,50.64
2018-08-10T22:43:20.585Z,50.56
2018-08-10T22:45:49.943Z,50.96
2018-08-10T22:48:18.882Z,51.39
2018-08-10T22:50:48.099Z,51.17
2018-08-10T22:53:17.612Z,51.48
2018-08-10T22:55:46.702Z,51.03
2018-08-10T22:58:15.969Z,51.50
2018-08-10T23:00:45.331Z,51.32
2018-08-10T23:03:14.264Z,51.53
2018-08-10T23:05:43.530Z,50.91
2018-08-10T23:08:12.487Z,51.94
2018-08-10T23:10:41.489Z,52.41
2018-08-10T23:13:11.000Z,52.96
2018-08-10T23:15:40.082Z,52.28
2018-08-10T23:18:09.175Z,52.65
2018-08-10T23:20:38.265Z,53.22
2018-08-10T23:23:07.393Z,52.99
2018-08-10T23:25:36.651Z,52.82
2018-08-10T23:28:05.996Z,53.65
2018-08-10T23:30:35.356Z,54.15
2018-08-10T23:33:04.894Z,53.31
2018-08-10T23:35:34.044Z,54.24
2018-08-10T23:38:04.022Z,54.16
2018-08-10T23:40:33.070Z,54.76
2018-08-10T23:43:02.493Z,54.70
2018-08-10T23:45:31.656Z,54.62
2018-08-10T23:48:00.790Z,55.13
2018-08-10T23:50:30.074Z,54.94
2018-08-10T23:52:59.596Z,55.97
2018-08-10T23:55:28.882Z,56.42
2018-08-10T23:57:58.155Z,56.36
